Condiciones actuales en los principales Aeropuertos de España-Datos Metar

 

LEAL - Alicante
Actualización: 29/03/2017 07:00
Despejado
Despejado
 Viento del O
Viento: O 11 km/h
Temperatura: 10°C
Wind Chill: 8°C
Rocío: 8°C
Humedad: 88%
Barómetro: 1027 hPa
Resumen: Despejado
Visibilidad: greater than 10 km
2017/03/29 05:00 LEAL 290500Z 27006KT 240V300 CAVOK 10/08 Q1027 NOSIG
LEAB - Albacete
Actualización: 29/03/2017 07:00
Despejado
Despejado
 Viento del ESE
Viento: ESE 6 km/h
Temperatura: 2°C
Rocío: 1°C
Humedad: 93%
Barómetro: 1028 hPa
Resumen: Despejado
Visibilidad: greater than 10 km
2017/03/29 05:00 LEAB 290500Z 12003KT CAVOK 02/01 Q1028 NOSIG
LEAM - Almería
Actualización: 29/03/2017 07:00
Despejado
Despejado
 Viento del N
Viento: N 9 km/h
Temperatura: 11°C
Rocío: 6°C
Humedad: 72%
Barómetro: 1026 hPa
Resumen: Despejado
Visibilidad: greater than 10 km
2017/03/29 05:00 LEAM 290500Z 35005KT CAVOK 11/06 Q1026
 
LEAS - Asturias/Aviles
Actualización: 29/03/2017 07:00
Despejado
Despejado
 Viento del OSO
Viento: OSO 15 km/h
Temperatura: 12°C
Rocío: 6°C
Humedad: 67%
Barómetro: 1024 hPa
Resumen: Despejado
Visibilidad: greater than 10 km
2017/03/29 05:00 LEAS 290500Z 24008KT CAVOK 12/06 Q1024 NOSIG
LEBZ - Badajoz/Talavera la Real
Actualización: 29/03/2017 07:00
Mist, Parcialmente nublado
Mist, Parcialmente nublado
 Viento del varies
Viento: varies 0 km/h
Barómetro: 1026 hPa
Resumen: Mist
Nubosidad: Partly Cloudy
Visibilidad: 5 km
2017/03/29 05:00 LEBZ 290500Z /////KT 5000 R31///// BR NSC ///// Q1026
LEBL - Barcelona
Actualización: 29/03/2017 07:00
Few Clouds
Few Clouds
 Viento del NNO
Viento: NNO 24 km/h
Temperatura: 10°C
Wind Chill: 7°C
Rocío: 7°C
Humedad: 82%
Barómetro: 1026 hPa
Nubosidad: Few Clouds
Visibilidad: 10 km
Cloud details: Few Clouds 914 m
2017/03/29 05:00 LEBL 290500Z 33013KT 9999 FEW030 10/07 Q1026 NOSIG
 
LEBB - Bilbao
Actualización: 29/03/2017 07:00
Despejado
Despejado
 Viento del E
Viento: E 6 km/h
Temperatura: 10°C
Rocío: 6°C
Humedad: 76%
Barómetro: 1025 hPa
Resumen: Despejado
Visibilidad: greater than 10 km
2017/03/29 05:00 LEBB 290500Z 09003KT 050V130 CAVOK 10/06 Q1025 NOSIG
LEBG - Burgos/Villafría
Actualización: 29/03/2017 07:00
Despejado
Despejado
 Viento del calm
Viento: Calma
Temperatura: 1°C
Rocío: 0°C
Humedad: 93%
Barómetro: 1027 hPa
Resumen: Despejado
Visibilidad: greater than 10 km
2017/03/29 05:00 LEBG 290500Z 00000KT CAVOK 01/M00 Q1027
LEBA - Córdoba
Actualización: 29/03/2017 07:00
Despejado
Despejado
 Viento del calm
Viento: Calma
Temperatura: 8°C
Rocío: 7°C
Humedad: 93%
Barómetro: 1026 hPa
Nubosidad: Despejado
Visibilidad: 10 km
2017/03/29 05:00 LEBA 290500Z AUTO 00000KT 9999 NCD 08/07 Q1026
 
LEGE - Gerona
Actualización: 29/03/2017 07:00
Despejado
Despejado
 Viento del calm
Viento: Calma
Temperatura: 6°C
Rocío: 6°C
Humedad: 100%
Barómetro: 1026 hPa
Resumen: Despejado
Visibilidad: greater than 10 km
2017/03/29 05:00 LEGE 290500Z 00000KT CAVOK 06/06 Q1026 NOSIG
LEGR - Granada
Actualización: 29/03/2017 07:00
Despejado
Despejado
 Viento del calm
Viento: Calma
Temperatura: 4°C
Rocío: 3°C
Humedad: 93%
Barómetro: 1027 hPa
Resumen: Despejado
Visibilidad: greater than 10 km
2017/03/29 05:00 LEGR 290500Z 00000KT CAVOK 04/03 Q1027
GCHI - Hierro
Actualización: 29/03/2017 07:00
Mostly Cloudy
Mostly Cloudy
 Viento del N
Viento: N 20 km/h
Temperatura: 18°C
Rocío: 14°C
Humedad: 78%
Barómetro: 1021 hPa
Nubosidad: Mostly Cloudy
Visibilidad: 10 km
Cloud details: Mostly Cloudy 488 m
2017/03/29 05:00 GCHI 290500Z AUTO 01011KT 9999 BKN016/// 18/14 Q1021
 
LEIB - Ibiza
Actualización: 29/03/2017 07:00
Few Clouds
Few Clouds
 Viento del NNO
Viento: NNO 6 km/h
Temperatura: 8°C
Rocío: 7°C
Humedad: 93%
Barómetro: 1027 hPa
Nubosidad: Few Clouds
Visibilidad: 10 km
Cloud details: Few Clouds 914 m
2017/03/29 05:00 LEIB 290500Z 33003KT 9999 FEW030 08/07 Q1027 NOSIG
LEJR - Jerez de la Frontera
Actualización: 29/03/2017 07:30
Despejado
Despejado
 Viento del ENE
Viento: ENE 6 km/h
Temperatura: 7°C
Rocío: 7°C
Humedad: 100%
Barómetro: 1024 hPa
Resumen: Despejado
Visibilidad: greater than 10 km
2017/03/29 05:30 LEJR 290530Z 06003KT CAVOK 07/07 Q1024
LECO - A Coruña
Actualización: 29/03/2017 07:00
Despejado
Despejado
 Viento del S
Viento: S 19 km/h, Racha: 43 km/h
Temperatura: 14°C
Rocío: 8°C
Humedad: 67%
Barómetro: 1023 hPa
Resumen: Despejado
Visibilidad: greater than 10 km
2017/03/29 05:00 LECO 290500Z 17010G23KT 120V200 CAVOK 14/08 Q1023 NOSIG
 
GCLA - La Palma
Actualización: 29/03/2017 07:00
Despejado
Despejado
 Viento del NNO
Viento: NNO 13 km/h
Temperatura: 16°C
Rocío: 12°C
Humedad: 77%
Barómetro: 1022 hPa
Nubosidad: Despejado
Visibilidad: 10 km
2017/03/29 05:00 GCLA 290500Z AUTO 33007KT 9999 NCD 16/12 Q1022
GCRR - Lanzarote
Actualización: 29/03/2017 02:00
NO Actualizado
Despejado
Despejado
 Viento del NNE
Viento: NNE 22 km/h
Temperatura: 16°C
Rocío: 13°C
Humedad: 83%
Barómetro: 1023 hPa
Resumen: Despejado
Visibilidad: greater than 10 km
2017/03/29 00:00 GCRR 290000Z 02012KT 340V040 CAVOK 16/13 Q1023
GCLP - Las Palmas
Actualización: 29/03/2017 07:00
Few Clouds
Few Clouds
 Viento del N
Viento: N 24 km/h
Temperatura: 16°C
Rocío: 12°C
Humedad: 77%
Barómetro: 1021 hPa
Nubosidad: Few Clouds
Visibilidad: 10 km
Cloud details: Few Clouds 914 m
2017/03/29 05:00 GCLP 290500Z 01013KT 9999 FEW030 16/12 Q1021 NOSIG
 
LELN - León
Actualización: 29/03/2017 07:00
Despejado
Despejado
 Viento del N
Viento: N 6 km/h
Temperatura: 4°C
Rocío: 2°C
Humedad: 87%
Barómetro: 1027 hPa
Resumen: Despejado
Visibilidad: greater than 10 km
2017/03/29 05:00 LELN 290500Z 01003KT 340V040 CAVOK 04/02 Q1027
LELO - Logroño
Actualización: 29/03/2017 07:00
Despejado
Despejado
 Viento del varies
Viento: varies 4 km/h
Temperatura: 4°C
Rocío: 3°C
Humedad: 93%
Barómetro: 1027 hPa
Resumen: Despejado
Visibilidad: greater than 10 km
2017/03/29 05:00 LELO 290500Z VRB02KT CAVOK 04/03 Q1027
LECV - Madrid/Colmenar
Actualización: 28/03/2017 20:00
NO Actualizado
Few Clouds
Few Clouds
 Viento del SO
Viento: SO 7 km/h
Temperatura: 13°C
Rocío: 3°C
Humedad: 51%
Barómetro: 1027 hPa
Nubosidad: Few Clouds
Visibilidad: 10 km
Cloud details: Few Clouds 1524 m
2017/03/28 18:00 LECV 281800Z 22004KT 9999 FEW050 13/03 Q1027
 
LEMD - Madrid/Barajas
Actualización: 29/03/2017 07:00
Despejado
Despejado
 Viento del N
Viento: N 6 km/h
Temperatura: 3°C
Rocío: 2°C
Humedad: 93%
Barómetro: 1028 hPa
Resumen: Despejado
Visibilidad: greater than 10 km
2017/03/29 05:00 LEMD 290500Z 36003KT CAVOK 03/02 Q1028 NOSIG
LEVS - Madrid/Cuatro Vientos
Actualización: 29/03/2017 07:00
Despejado
Despejado
 Viento del calm
Viento: Calma
Temperatura: 5°C
Rocío: 4°C
Humedad: 93%
Barómetro: 1028 hPa
Resumen: Despejado
Visibilidad: greater than 10 km
2017/03/29 05:00 LEVS 290500Z 00000KT CAVOK 05/04 Q1028
LEGT - Madrid/Getafe
Actualización: 29/03/2017 07:00
Despejado
Despejado
 Viento del calm
Viento: Calma
Temperatura: 4°C
Rocío: 2°C
Humedad: 87%
Barómetro: 1027 hPa
Resumen: Despejado
Visibilidad: greater than 10 km
2017/03/29 05:00 LEGT 290500Z 00000KT CAVOK 04/02 Q1027
 
LETO - Madrid/Torrejón
Actualización: 29/03/2017 07:00
Despejado
Despejado
 Viento del NNE
Viento: NNE 6 km/h
Temperatura: 3°C
Rocío: 2°C
Humedad: 93%
Barómetro: 1028 hPa
Resumen: Despejado
Visibilidad: greater than 10 km
2017/03/29 05:00 LETO 290500Z 03003KT CAVOK 03/02 Q1028 NOSIG
LEMG - Málaga
Actualización: 29/03/2017 07:00
Despejado
Despejado
 Viento del ONO
Viento: ONO 13 km/h
Temperatura: 9°C
Wind Chill: 7°C
Rocío: 7°C
Humedad: 87%
Barómetro: 1027 hPa
Resumen: Despejado
Visibilidad: greater than 10 km
2017/03/29 05:00 LEMG 290500Z 29007KT CAVOK 09/07 Q1027 NOSIG
GEML - Melilla
Actualización: 29/03/2017 07:00
Partly Cloudy
Partly Cloudy
 Viento del calm
Viento: Calma
Temperatura: 12°C
Rocío: 10°C
Humedad: 88%
Barómetro: 1026 hPa
Nubosidad: Partly Cloudy
Visibilidad: 10 km
Cloud details: Partly Cloudy 244 m
2017/03/29 05:00 GEML 290500Z 00000KT 9999 SCT008 12/10 Q1026
 
LEMH - Mahón
Actualización: 29/03/2017 07:00
Despejado
Despejado
 Viento del NO
Viento: NO 7 km/h
Temperatura: 10°C
Wind Chill: 9°C
Rocío: 10°C
Humedad: 100%
Barómetro: 1025 hPa
Resumen: Despejado
Visibilidad: greater than 10 km
2017/03/29 05:00 LEMH 290500Z 31004KT 270V350 CAVOK 10/10 Q1025
LEMO - Morón de La Frontera
Actualización: 29/03/2017 07:00
Despejado
Despejado
 Viento del ENE
Viento: ENE 4 km/h
Temperatura: 7°C
Rocío: 6°C
Humedad: 93%
Barómetro: 1025 hPa
Resumen: Despejado
Visibilidad: greater than 10 km
2017/03/29 05:00 LEMO 290500Z 06002KT CAVOK 07/06 Q1025 NOSIG
LERI - Murcia/Alcantarilla
Actualización: 28/03/2017 20:00
NO Actualizado
Despejado
Despejado
 Viento del varies
Viento: varies 6 km/h
Temperatura: 19°C
Rocío: 8°C
Humedad: 49%
Barómetro: 1026 hPa
Resumen: Despejado
Visibilidad: greater than 10 km
2017/03/28 18:00 LERI 281800Z VRB03KT CAVOK 19/08 Q1026 NOSIG
 
LELC - Murcia/San Javier
Actualización: 29/03/2017 07:19
Mist, Muy nuboso
Mist, Muy nuboso
 Viento del varies
Viento: varies 2 km/h
Temperatura: 12°C
Rocío: 12°C
Humedad: 100%
Barómetro: 1027 hPa
Resumen: Mist
Nubosidad: Mostly Cloudy
Visibilidad: 5 km
Cloud details: Mostly Cloudy 91 m
2017/03/29 05:19 LELC 290519Z VRB01KT 5000 BR BKN003 12/12 Q1027 NOSIG
LEPA - Palma de Mallorca
Actualización: 29/03/2017 07:00
Despejado
Despejado
 Viento del calm
Viento: Calma
Temperatura: 6°C
Rocío: 6°C
Humedad: 100%
Barómetro: 1026 hPa
Resumen: Despejado
Visibilidad: greater than 10 km
2017/03/29 05:00 LEPA 290500Z 00000KT CAVOK 06/06 Q1026 NOSIG
LEPP - Pamplona
Actualización: 29/03/2017 07:00
Despejado
Despejado
 Viento del ENE
Viento: ENE 2 km/h
Temperatura: 4°C
Rocío: 3°C
Humedad: 93%
Barómetro: 1027 hPa
Resumen: Despejado
Visibilidad: greater than 10 km
2017/03/29 05:00 LEPP 290500Z 07001KT CAVOK 04/03 Q1027
 
LERS - Reus
Actualización: 29/03/2017 07:00
Few Clouds
Few Clouds
 Viento del N
Viento: N 7 km/h
Temperatura: 8°C
Wind Chill: 7°C
Rocío: 7°C
Humedad: 93%
Barómetro: 1026 hPa
Nubosidad: Few Clouds
Visibilidad: 10 km
Cloud details: Few Clouds 914 m
2017/03/29 05:00 LERS 290500Z 01004KT 350V050 9999 FEW030 08/07 Q1026
LERT - Rota
Actualización: 29/03/2017 07:00
Despejado
Despejado
 Viento del E
Viento: E 7 km/h
Temperatura: 10°C
Wind Chill: 9°C
Rocío: 8°C
Humedad: 88%
Barómetro: 1024 hPa
Resumen: Despejado
Visibilidad: greater than 10 km
2017/03/29 05:00 LERT 290500Z 09004KT CAVOK 10/08 Q1024 NOSIG
LELL - Sabadell
Actualización: 29/03/2017 07:00
Despejado
Despejado
 Viento del O
Viento: O 6 km/h
Temperatura: 6°C
Rocío: 6°C
Humedad: 100%
Barómetro: 1026 hPa
Nubosidad: Despejado
Visibilidad: 10 km
2017/03/29 05:00 LELL 290500Z AUTO 27003KT 9999 NCD 06/06 Q1026
 
LESA - Salamanca
Actualización: 29/03/2017 07:00
Despejado
Despejado
 Viento del calm
Viento: Calma
Temperatura: 1°C
Rocío: 1°C
Humedad: 100%
Barómetro: 1027 hPa
Resumen: Despejado
Visibilidad: greater than 10 km
2017/03/29 05:00 LESA 290500Z 00000KT CAVOK 01/01 Q1027
LESO - San Sebastián
Actualización: 29/03/2017 07:00
Despejado
Despejado
 Viento del S
Viento: S 7 km/h
Temperatura: 9°C
Wind Chill: 8°C
Rocío: 7°C
Humedad: 87%
Barómetro: 1025 hPa
Resumen: Despejado
Visibilidad: greater than 10 km
2017/03/29 05:00 LESO 290500Z 17004KT CAVOK 09/07 Q1025
LEXJ - Santander
Actualización: 29/03/2017 07:00
Despejado
Despejado
 Viento del calm
Viento: Calma
Temperatura: 8°C
Rocío: 6°C
Humedad: 87%
Barómetro: 1024 hPa
Resumen: Despejado
Visibilidad: greater than 10 km
2017/03/29 05:00 LEXJ 290500Z 00000KT CAVOK 08/06 Q1024
 
LEPA - Palma de Mallorca
Actualización: 29/03/2017 07:00
Despejado
Despejado
 Viento del calm
Viento: Calma
Temperatura: 6°C
Rocío: 6°C
Humedad: 100%
Barómetro: 1026 hPa
Resumen: Despejado
Visibilidad: greater than 10 km
2017/03/29 05:00 LEPA 290500Z 00000KT CAVOK 06/06 Q1026 NOSIG
LEPP - Pamplona
Actualización: 29/03/2017 07:00
Despejado
Despejado
 Viento del ENE
Viento: ENE 2 km/h
Temperatura: 4°C
Rocío: 3°C
Humedad: 93%
Barómetro: 1027 hPa
Resumen: Despejado
Visibilidad: greater than 10 km
2017/03/29 05:00 LEPP 290500Z 07001KT CAVOK 04/03 Q1027
LEST - Santiago de Compostela
Actualización: 29/03/2017 07:00
Mostly Cloudy
Mostly Cloudy
 Viento del S
Viento: S 19 km/h
Temperatura: 11°C
Rocío: 7°C
Humedad: 77%
Barómetro: 1024 hPa
Nubosidad: Mostly Cloudy
Visibilidad: 10 km
Cloud details: Mostly Cloudy 1219 m
2017/03/29 05:00 LEST 290500Z 18010KT 9999 BKN040 11/07 Q1024 NOSIG
 
LEZL - Sevilla
Actualización: 29/03/2017 07:00
Despejado
Despejado
 Viento del ENE
Viento: ENE 9 km/h
Temperatura: 12°C
Rocío: 9°C
Humedad: 82%
Barómetro: 1025 hPa
Resumen: Despejado
Visibilidad: greater than 10 km
2017/03/29 05:00 LEZL 290500Z 06005KT CAVOK 12/09 Q1025 NOSIG
GCXO - Tenerife
Actualización: 29/03/2017 07:00
Despejado
Despejado
 Viento del OSO
Viento: OSO 6 km/h
Temperatura: 12°C
Rocío: 2°C
Humedad: 51%
Barómetro: 1022 hPa
Resumen: Despejado
Visibilidad: greater than 10 km
2017/03/29 05:00 GCXO 290500Z 25003KT 210V280 CAVOK 12/02 Q1022 NOSIG
GCTS - Tenerife-Sur
Actualización: 29/03/2017 07:00
Few Clouds
Few Clouds
 Viento del ENE
Viento: ENE 19 km/h
Temperatura: 15°C
Rocío: 11°C
Humedad: 77%
Barómetro: 1021 hPa
Nubosidad: Few Clouds
Visibilidad: 10 km
Cloud details: Few Clouds 914 m
2017/03/29 05:00 GCTS 290500Z 06010KT 9999 FEW030 15/11 Q1021 NOSIG
 
LEVC - Valencia
Actualización: 29/03/2017 07:00
Despejado
Despejado
 Viento del varies
Viento: varies 4 km/h
Temperatura: 9°C
Rocío: 6°C
Humedad: 82%
Barómetro: 1027 hPa
Resumen: Despejado
Visibilidad: greater than 10 km
2017/03/29 05:00 LEVC 290500Z VRB02KT CAVOK 09/06 Q1027 NOSIG
LEVD - Valladolid
Actualización: 29/03/2017 07:00
Despejado
Despejado
 Viento del SE
Viento: SE 7 km/h
Temperatura: 2°C
Wind Chill: 0°C
Rocío: 1°C
Humedad: 93%
Barómetro: 1027 hPa
Resumen: Despejado
Visibilidad: greater than 10 km
2017/03/29 05:00 LEVD 290500Z 14004KT CAVOK 02/01 Q1027
LEVX - Vigo
Actualización: 29/03/2017 07:00
Partly Cloudy
Partly Cloudy
 Viento del SSO
Viento: SSO 9 km/h
Temperatura: 12°C
Rocío: 8°C
Humedad: 77%
Barómetro: 1025 hPa
Nubosidad: Partly Cloudy
Visibilidad: 10 km
Cloud details: Partly Cloudy 1494 m
2017/03/29 05:00 LEVX 290500Z 20005KT 9999 SCT049 12/08 Q1025 NOSIG
 
LEVT - Vitoria
Actualización: 29/03/2017 07:00
Few Clouds
Few Clouds
 Viento del calm
Viento: Calma
Temperatura: 0°C
Rocío: 0°C
Humedad: 100%
Barómetro: 1027 hPa
Nubosidad: Few Clouds
Visibilidad: 10 km
Cloud details: Few Clouds 91 m
2017/03/29 05:00 LEVT 290500Z 00000KT 9999 FEW003 00/00 Q1027
LEZG - Zaragoza
Actualización: 29/03/2017 07:00
Despejado
Despejado
 Viento del OSO
Viento: OSO 2 km/h
Temperatura: 7°C
Rocío: 6°C
Humedad: 93%
Barómetro: 1027 hPa
Resumen: Despejado
Visibilidad: greater than 10 km
2017/03/29 05:00 LEZG 290500Z 24001KT CAVOK 07/06 Q1027

La estación de MeteoMurcia.com, publica sus datos en los siguientes proyectos:

Meteoclimatic www.awekas.at

W3Counter
Web Analytics